sensor_id;sensor_type;location;lat;lon;timestamp;P1;durP1;ratioP1;P2;durP2;ratioP2
1721;SDS011;858;53.190;8.596;2023-02-28T00:02:24;9.35;;;6.63;;
1721;SDS011;858;53.190;8.596;2023-02-28T00:04:50;9.73;;;6.70;;
1721;SDS011;858;53.190;8.596;2023-02-28T00:07:19;13.35;;;8.00;;
1721;SDS011;858;53.190;8.596;2023-02-28T00:09:45;9.90;;;7.23;;
1721;SDS011;858;53.190;8.596;2023-02-28T00:12:12;9.93;;;7.00;;
1721;SDS011;858;53.190;8.596;2023-02-28T00:14:40;11.68;;;7.50;;
1721;SDS011;858;53.190;8.596;2023-02-28T00:17:06;10.27;;;7.30;;
1721;SDS011;858;53.190;8.596;2023-02-28T00:19:34;9.30;;;6.80;;
1721;SDS011;858;53.190;8.596;2023-02-28T00:22:00;9.70;;;7.20;;
1721;SDS011;858;53.190;8.596;2023-02-28T00:24:28;10.52;;;6.40;;
1721;SDS011;858;53.190;8.596;2023-02-28T00:26:55;12.95;;;7.70;;
1721;SDS011;858;53.190;8.596;2023-02-28T00:29:21;9.43;;;6.80;;
1721;SDS011;858;53.190;8.596;2023-02-28T00:31:48;9.93;;;7.38;;
1721;SDS011;858;53.190;8.596;2023-02-28T00:34:14;10.45;;;7.22;;
1721;SDS011;858;53.190;8.596;2023-02-28T00:36:41;10.93;;;7.30;;
1721;SDS011;858;53.190;8.596;2023-02-28T00:39:10;10.43;;;7.38;;
1721;SDS011;858;53.190;8.596;2023-02-28T00:41:38;10.05;;;6.68;;
1721;SDS011;858;53.190;8.596;2023-02-28T00:44:04;10.45;;;7.25;;
1721;SDS011;858;53.190;8.596;2023-02-28T00:46:31;9.65;;;6.90;;
1721;SDS011;858;53.190;8.596;2023-02-28T00:48:57;8.48;;;6.60;;
1721;SDS011;858;53.190;8.596;2023-02-28T00:51:24;12.17;;;7.80;;
1721;SDS011;858;53.190;8.596;2023-02-28T00:53:50;10.82;;;6.80;;
1721;SDS011;858;53.190;8.596;2023-02-28T00:56:17;10.10;;;6.88;;
1721;SDS011;858;53.190;8.596;2023-02-28T00:58:45;9.55;;;6.70;;
1721;SDS011;858;53.190;8.596;2023-02-28T01:01:11;10.18;;;7.18;;
1721;SDS011;858;53.190;8.596;2023-02-28T01:03:37;10.33;;;7.17;;
1721;SDS011;858;53.190;8.596;2023-02-28T01:06:04;11.52;;;7.90;;
1721;SDS011;858;53.190;8.596;2023-02-28T01:08:31;9.38;;;7.10;;
1721;SDS011;858;53.190;8.596;2023-02-28T01:10:57;9.50;;;7.00;;
1721;SDS011;858;53.190;8.596;2023-02-28T01:13:23;14.07;;;7.80;;
1721;SDS011;858;53.190;8.596;2023-02-28T01:15:52;11.07;;;7.40;;
1721;SDS011;858;53.190;8.596;2023-02-28T01:18:20;10.57;;;7.22;;
1721;SDS011;858;53.190;8.596;2023-02-28T01:20:47;9.35;;;7.38;;
1721;SDS011;858;53.190;8.596;2023-02-28T01:23:13;10.80;;;7.65;;
1721;SDS011;858;53.190;8.596;2023-02-28T01:25:40;11.37;;;7.33;;
1721;SDS011;858;53.190;8.596;2023-02-28T01:28:06;11.07;;;7.68;;
1721;SDS011;858;53.190;8.596;2023-02-28T01:30:33;11.43;;;7.90;;
1721;SDS011;858;53.190;8.596;2023-02-28T01:33:01;9.85;;;7.65;;
1721;SDS011;858;53.190;8.596;2023-02-28T01:35:27;9.38;;;7.80;;
1721;SDS011;858;53.190;8.596;2023-02-28T01:37:53;10.70;;;7.70;;
1721;SDS011;858;53.190;8.596;2023-02-28T01:40:20;10.82;;;7.43;;
1721;SDS011;858;53.190;8.596;2023-02-28T01:42:46;11.77;;;8.20;;
1721;SDS011;858;53.190;8.596;2023-02-28T01:45:19;10.95;;;8.02;;
1721;SDS011;858;53.190;8.596;2023-02-28T01:47:47;11.25;;;7.60;;
1721;SDS011;858;53.190;8.596;2023-02-28T01:50:16;9.40;;;7.50;;
1721;SDS011;858;53.190;8.596;2023-02-28T01:52:44;9.20;;;7.00;;
1721;SDS011;858;53.190;8.596;2023-02-28T01:55:12;9.20;;;6.63;;
1721;SDS011;858;53.190;8.596;2023-02-28T01:57:39;11.27;;;7.30;;
1721;SDS011;858;53.190;8.596;2023-02-28T02:00:08;9.95;;;7.28;;
1721;SDS011;858;53.190;8.596;2023-02-28T02:02:36;9.98;;;7.78;;
1721;SDS011;858;53.190;8.596;2023-02-28T02:05:04;13.10;;;7.77;;
1721;SDS011;858;53.190;8.596;2023-02-28T02:10:10;11.82;;;7.53;;
1721;SDS011;858;53.190;8.596;2023-02-28T02:12:53;14.23;;;8.55;;
1721;SDS011;858;53.190;8.596;2023-02-28T02:15:24;9.63;;;7.88;;
1721;SDS011;858;53.190;8.596;2023-02-28T02:17:54;13.27;;;8.30;;
1721;SDS011;858;53.190;8.596;2023-02-28T02:20:36;11.40;;;7.50;;
1721;SDS011;858;53.190;8.596;2023-02-28T02:23:18;11.73;;;7.97;;
1721;SDS011;858;53.190;8.596;2023-02-28T02:25:50;11.48;;;8.23;;
1721;SDS011;858;53.190;8.596;2023-02-28T02:31:29;10.60;;;8.10;;
1721;SDS011;858;53.190;8.596;2023-02-28T02:34:12;9.73;;;7.07;;
1721;SDS011;858;53.190;8.596;2023-02-28T02:36:44;9.35;;;7.10;;
1721;SDS011;858;53.190;8.596;2023-02-28T02:39:14;8.75;;;6.80;;
1721;SDS011;858;53.190;8.596;2023-02-28T02:41:45;9.10;;;7.35;;
1721;SDS011;858;53.190;8.596;2023-02-28T02:44:13;11.53;;;7.60;;
1721;SDS011;858;53.190;8.596;2023-02-28T02:46:42;8.90;;;7.00;;
1721;SDS011;858;53.190;8.596;2023-02-28T02:49:12;13.97;;;7.33;;
1721;SDS011;858;53.190;8.596;2023-02-28T02:51:39;10.98;;;7.82;;
1721;SDS011;858;53.190;8.596;2023-02-28T02:54:08;11.63;;;7.00;;
1721;SDS011;858;53.190;8.596;2023-02-28T02:56:35;10.18;;;7.90;;
1721;SDS011;858;53.190;8.596;2023-02-28T02:59:02;12.30;;;7.78;;
1721;SDS011;858;53.190;8.596;2023-02-28T03:01:30;10.63;;;7.78;;
1721;SDS011;858;53.190;8.596;2023-02-28T03:03:57;10.90;;;8.02;;
1721;SDS011;858;53.190;8.596;2023-02-28T03:06:25;12.85;;;7.68;;
1721;SDS011;858;53.190;8.596;2023-02-28T03:08:53;12.18;;;8.10;;
1721;SDS011;858;53.190;8.596;2023-02-28T03:11:19;10.02;;;6.95;;
1721;SDS011;858;53.190;8.596;2023-02-28T03:16:46;12.65;;;7.50;;
1721;SDS011;858;53.190;8.596;2023-02-28T03:19:22;11.00;;;7.80;;
1721;SDS011;858;53.190;8.596;2023-02-28T03:21:54;11.35;;;8.18;;
1721;SDS011;858;53.190;8.596;2023-02-28T03:24:23;12.52;;;7.88;;
1721;SDS011;858;53.190;8.596;2023-02-28T03:26:54;9.52;;;7.47;;
1721;SDS011;858;53.190;8.596;2023-02-28T03:29:22;10.25;;;7.05;;
1721;SDS011;858;53.190;8.596;2023-02-28T03:31:52;11.23;;;7.68;;
1721;SDS011;858;53.190;8.596;2023-02-28T03:34:21;10.50;;;7.38;;
1721;SDS011;858;53.190;8.596;2023-02-28T03:36:49;12.23;;;8.05;;
1721;SDS011;858;53.190;8.596;2023-02-28T03:39:20;9.48;;;7.20;;
1721;SDS011;858;53.190;8.596;2023-02-28T03:41:48;10.43;;;7.18;;
1721;SDS011;858;53.190;8.596;2023-02-28T03:44:17;10.40;;;7.20;;
1721;SDS011;858;53.190;8.596;2023-02-28T03:46:45;9.35;;;7.15;;
1721;SDS011;858;53.190;8.596;2023-02-28T03:49:16;10.60;;;8.10;;
1721;SDS011;858;53.190;8.596;2023-02-28T03:51:43;12.00;;;7.75;;
1721;SDS011;858;53.190;8.596;2023-02-28T03:54:13;10.52;;;7.10;;
1721;SDS011;858;53.190;8.596;2023-02-28T03:56:45;9.93;;;6.97;;
1721;SDS011;858;53.190;8.596;2023-02-28T03:59:14;11.60;;;8.00;;
1721;SDS011;858;53.190;8.596;2023-02-28T04:01:43;9.82;;;7.57;;
1721;SDS011;858;53.190;8.596;2023-02-28T04:04:10;9.20;;;8.15;;
1721;SDS011;858;53.190;8.596;2023-02-28T04:06:37;14.00;;;8.30;;
1721;SDS011;858;53.190;8.596;2023-02-28T04:09:04;9.93;;;7.70;;
1721;SDS011;858;53.190;8.596;2023-02-28T04:11:32;12.23;;;8.10;;
1721;SDS011;858;53.190;8.596;2023-02-28T04:14:01;12.52;;;8.38;;
1721;SDS011;858;53.190;8.596;2023-02-28T04:16:28;11.70;;;8.20;;
1721;SDS011;858;53.190;8.596;2023-02-28T04:18:54;12.77;;;8.43;;
1721;SDS011;858;53.190;8.596;2023-02-28T04:21:26;9.90;;;8.43;;
1721;SDS011;858;53.190;8.596;2023-02-28T04:23:53;11.40;;;9.10;;
1721;SDS011;858;53.190;8.596;2023-02-28T04:26:19;13.00;;;9.20;;
1721;SDS011;858;53.190;8.596;2023-02-28T04:28:46;13.25;;;9.02;;
1721;SDS011;858;53.190;8.596;2023-02-28T04:31:14;13.80;;;9.73;;
1721;SDS011;858;53.190;8.596;2023-02-28T04:33:42;15.70;;;10.07;;
1721;SDS011;858;53.190;8.596;2023-02-28T04:36:09;10.00;;;8.73;;
1721;SDS011;858;53.190;8.596;2023-02-28T04:38:36;14.45;;;9.68;;
1721;SDS011;858;53.190;8.596;2023-02-28T04:41:03;14.73;;;9.85;;
1721;SDS011;858;53.190;8.596;2023-02-28T04:43:30;14.85;;;10.15;;
1721;SDS011;858;53.190;8.596;2023-02-28T04:45:57;16.30;;;9.80;;
1721;SDS011;858;53.190;8.596;2023-02-28T04:48:26;14.30;;;10.27;;
1721;SDS011;858;53.190;8.596;2023-02-28T04:50:53;12.52;;;10.48;;
1721;SDS011;858;53.190;8.596;2023-02-28T04:53:20;16.00;;;11.05;;
1721;SDS011;858;53.190;8.596;2023-02-28T04:55:46;14.38;;;11.15;;
1721;SDS011;858;53.190;8.596;2023-02-28T04:58:12;15.25;;;11.55;;
1721;SDS011;858;53.190;8.596;2023-02-28T05:00:39;15.20;;;12.10;;
1721;SDS011;858;53.190;8.596;2023-02-28T05:03:07;14.35;;;10.82;;
1721;SDS011;858;53.190;8.596;2023-02-28T05:05:36;14.63;;;11.32;;
1721;SDS011;858;53.190;8.596;2023-02-28T05:08:02;14.07;;;10.85;;
1721;SDS011;858;53.190;8.596;2023-02-28T05:10:30;18.40;;;10.70;;
1721;SDS011;858;53.190;8.596;2023-02-28T05:12:57;14.15;;;10.60;;
1721;SDS011;858;53.190;8.596;2023-02-28T05:15:23;12.85;;;10.82;;
1721;SDS011;858;53.190;8.596;2023-02-28T05:17:50;12.33;;;10.77;;
1721;SDS011;858;53.190;8.596;2023-02-28T05:20:17;13.20;;;10.00;;
1721;SDS011;858;53.190;8.596;2023-02-28T05:22:46;12.35;;;9.60;;
1721;SDS011;858;53.190;8.596;2023-02-28T05:25:16;12.60;;;10.00;;
1721;SDS011;858;53.190;8.596;2023-02-28T05:27:43;13.70;;;9.52;;
1721;SDS011;858;53.190;8.596;2023-02-28T05:30:10;16.80;;;9.93;;
1721;SDS011;858;53.190;8.596;2023-02-28T05:32:36;14.25;;;9.80;;
1721;SDS011;858;53.190;8.596;2023-02-28T05:35:03;14.93;;;10.65;;
1721;SDS011;858;53.190;8.596;2023-02-28T05:37:31;13.87;;;9.60;;
1721;SDS011;858;53.190;8.596;2023-02-28T05:39:59;14.23;;;10.25;;
1721;SDS011;858;53.190;8.596;2023-02-28T05:42:25;14.05;;;10.15;;
1721;SDS011;858;53.190;8.596;2023-02-28T05:44:52;13.13;;;10.10;;
1721;SDS011;858;53.190;8.596;2023-02-28T05:47:18;12.38;;;9.20;;
1721;SDS011;858;53.190;8.596;2023-02-28T05:49:45;14.27;;;9.90;;
1721;SDS011;858;53.190;8.596;2023-02-28T05:52:11;12.93;;;9.55;;
1721;SDS011;858;53.190;8.596;2023-02-28T05:54:38;11.00;;;9.30;;
1721;SDS011;858;53.190;8.596;2023-02-28T05:57:06;13.05;;;9.75;;
1721;SDS011;858;53.190;8.596;2023-02-28T05:59:32;16.10;;;10.40;;
1721;SDS011;858;53.190;8.596;2023-02-28T06:01:59;14.15;;;9.80;;
1721;SDS011;858;53.190;8.596;2023-02-28T06:04:25;14.30;;;9.45;;
1721;SDS011;858;53.190;8.596;2023-02-28T06:06:51;13.00;;;9.90;;
1721;SDS011;858;53.190;8.596;2023-02-28T06:09:18;10.80;;;8.73;;
1721;SDS011;858;53.190;8.596;2023-02-28T06:11:46;12.53;;;8.83;;
1721;SDS011;858;53.190;8.596;2023-02-28T06:14:15;13.75;;;10.60;;
1721;SDS011;858;53.190;8.596;2023-02-28T06:16:43;13.40;;;9.82;;
1721;SDS011;858;53.190;8.596;2023-02-28T06:19:09;10.82;;;9.10;;
1721;SDS011;858;53.190;8.596;2023-02-28T06:21:36;17.55;;;9.77;;
1721;SDS011;858;53.190;8.596;2023-02-28T06:24:02;12.80;;;9.05;;
1721;SDS011;858;53.190;8.596;2023-02-28T06:26:29;11.52;;;9.20;;
1721;SDS011;858;53.190;8.596;2023-02-28T06:28:56;11.70;;;8.80;;
1721;SDS011;858;53.190;8.596;2023-02-28T06:31:24;12.50;;;8.93;;
1721;SDS011;858;53.190;8.596;2023-02-28T06:33:50;11.02;;;8.68;;
1721;SDS011;858;53.190;8.596;2023-02-28T06:36:17;11.43;;;8.73;;
1721;SDS011;858;53.190;8.596;2023-02-28T06:38:44;12.27;;;8.90;;
1721;SDS011;858;53.190;8.596;2023-02-28T06:41:10;14.85;;;8.98;;
1721;SDS011;858;53.190;8.596;2023-02-28T06:43:37;12.00;;;8.95;;
1721;SDS011;858;53.190;8.596;2023-02-28T06:46:05;12.48;;;9.20;;
1721;SDS011;858;53.190;8.596;2023-02-28T06:48:35;12.50;;;9.40;;
1721;SDS011;858;53.190;8.596;2023-02-28T06:51:02;10.57;;;8.85;;
1721;SDS011;858;53.190;8.596;2023-02-28T06:53:29;12.57;;;9.20;;
1721;SDS011;858;53.190;8.596;2023-02-28T06:55:56;13.55;;;9.30;;
1721;SDS011;858;53.190;8.596;2023-02-28T06:58:23;16.95;;;9.77;;
1721;SDS011;858;53.190;8.596;2023-02-28T07:00:50;11.73;;;9.40;;
1721;SDS011;858;53.190;8.596;2023-02-28T07:03:16;12.43;;;9.25;;
1721;SDS011;858;53.190;8.596;2023-02-28T07:05:47;12.68;;;9.38;;
1721;SDS011;858;53.190;8.596;2023-02-28T07:08:13;13.38;;;10.15;;
1721;SDS011;858;53.190;8.596;2023-02-28T07:10:39;12.27;;;9.13;;
1721;SDS011;858;53.190;8.596;2023-02-28T07:13:07;10.68;;;8.98;;
1721;SDS011;858;53.190;8.596;2023-02-28T07:15:34;13.35;;;9.20;;
1721;SDS011;858;53.190;8.596;2023-02-28T07:18:00;13.02;;;9.80;;
1721;SDS011;858;53.190;8.596;2023-02-28T07:20:28;11.95;;;8.98;;
1721;SDS011;858;53.190;8.596;2023-02-28T07:22:56;13.17;;;8.60;;
1721;SDS011;858;53.190;8.596;2023-02-28T07:25:22;12.20;;;8.80;;
1721;SDS011;858;53.190;8.596;2023-02-28T07:27:49;11.00;;;8.50;;
1721;SDS011;858;53.190;8.596;2023-02-28T07:30:17;13.63;;;9.27;;
1721;SDS011;858;53.190;8.596;2023-02-28T07:32:45;11.57;;;9.07;;
1721;SDS011;858;53.190;8.596;2023-02-28T07:35:11;9.60;;;8.60;;
1721;SDS011;858;53.190;8.596;2023-02-28T07:37:40;12.15;;;8.60;;
1721;SDS011;858;53.190;8.596;2023-02-28T07:40:09;11.88;;;8.63;;
1721;SDS011;858;53.190;8.596;2023-02-28T07:42:39;12.40;;;8.50;;
1721;SDS011;858;53.190;8.596;2023-02-28T07:45:06;11.75;;;9.18;;
1721;SDS011;858;53.190;8.596;2023-02-28T07:47:32;8.80;;;7.90;;
1721;SDS011;858;53.190;8.596;2023-02-28T07:49:59;10.13;;;7.70;;
1721;SDS011;858;53.190;8.596;2023-02-28T07:52:25;12.57;;;7.20;;
1721;SDS011;858;53.190;8.596;2023-02-28T07:54:54;10.05;;;8.00;;
1721;SDS011;858;53.190;8.596;2023-02-28T07:57:21;10.73;;;6.85;;
1721;SDS011;858;53.190;8.596;2023-02-28T07:59:48;10.32;;;7.28;;
1721;SDS011;858;53.190;8.596;2023-02-28T08:02:14;9.30;;;7.20;;
1721;SDS011;858;53.190;8.596;2023-02-28T08:04:41;10.80;;;6.53;;
1721;SDS011;858;53.190;8.596;2023-02-28T08:07:07;10.25;;;7.05;;
1721;SDS011;858;53.190;8.596;2023-02-28T08:09:34;8.80;;;7.10;;
1721;SDS011;858;53.190;8.596;2023-02-28T08:12:01;8.15;;;7.32;;
1721;SDS011;858;53.190;8.596;2023-02-28T08:14:28;8.00;;;6.65;;
1721;SDS011;858;53.190;8.596;2023-02-28T08:16:55;9.18;;;6.68;;
1721;SDS011;858;53.190;8.596;2023-02-28T08:19:23;8.07;;;6.03;;
1721;SDS011;858;53.190;8.596;2023-02-28T08:21:49;10.65;;;6.80;;
1721;SDS011;858;53.190;8.596;2023-02-28T08:24:15;8.13;;;6.10;;
1721;SDS011;858;53.190;8.596;2023-02-28T08:26:43;11.50;;;6.13;;
1721;SDS011;858;53.190;8.596;2023-02-28T08:29:09;8.23;;;6.40;;
1721;SDS011;858;53.190;8.596;2023-02-28T08:31:37;8.35;;;6.10;;
1721;SDS011;858;53.190;8.596;2023-02-28T08:34:05;9.68;;;5.78;;
1721;SDS011;858;53.190;8.596;2023-02-28T08:36:31;8.30;;;5.53;;
1721;SDS011;858;53.190;8.596;2023-02-28T08:38:59;10.35;;;6.47;;
1721;SDS011;858;53.190;8.596;2023-02-28T08:41:25;8.30;;;5.87;;
1721;SDS011;858;53.190;8.596;2023-02-28T08:43:52;9.38;;;5.32;;
1721;SDS011;858;53.190;8.596;2023-02-28T08:46:19;6.20;;;4.90;;
1721;SDS011;858;53.190;8.596;2023-02-28T08:48:50;9.07;;;5.10;;
1721;SDS011;858;53.190;8.596;2023-02-28T08:51:17;7.03;;;4.90;;
1721;SDS011;858;53.190;8.596;2023-02-28T08:53:47;5.40;;;4.90;;
1721;SDS011;858;53.190;8.596;2023-02-28T08:56:14;7.18;;;4.90;;
1721;SDS011;858;53.190;8.596;2023-02-28T08:58:42;6.43;;;4.68;;
1721;SDS011;858;53.190;8.596;2023-02-28T09:01:08;8.05;;;4.30;;
1721;SDS011;858;53.190;8.596;2023-02-28T09:03:35;6.25;;;4.13;;
1721;SDS011;858;53.190;8.596;2023-02-28T09:06:03;8.85;;;4.85;;
1721;SDS011;858;53.190;8.596;2023-02-28T09:08:30;6.90;;;4.60;;
1721;SDS011;858;53.190;8.596;2023-02-28T09:10:57;5.47;;;4.43;;
1721;SDS011;858;53.190;8.596;2023-02-28T09:13:25;5.10;;;3.80;;
1721;SDS011;858;53.190;8.596;2023-02-28T09:15:52;4.13;;;2.55;;
1721;SDS011;858;53.190;8.596;2023-02-28T09:18:18;4.57;;;2.97;;
1721;SDS011;858;53.190;8.596;2023-02-28T09:20:45;5.63;;;3.30;;
1721;SDS011;858;53.190;8.596;2023-02-28T09:23:12;5.00;;;2.90;;
1721;SDS011;858;53.190;8.596;2023-02-28T09:25:45;3.55;;;3.00;;
1721;SDS011;858;53.190;8.596;2023-02-28T09:28:13;4.25;;;3.10;;
1721;SDS011;858;53.190;8.596;2023-02-28T09:30:40;6.68;;;3.80;;
1721;SDS011;858;53.190;8.596;2023-02-28T09:33:08;3.67;;;3.20;;
1721;SDS011;858;53.190;8.596;2023-02-28T09:35:35;5.13;;;3.17;;
1721;SDS011;858;53.190;8.596;2023-02-28T09:38:02;5.15;;;3.03;;
1721;SDS011;858;53.190;8.596;2023-02-28T09:40:30;3.90;;;2.70;;
1721;SDS011;858;53.190;8.596;2023-02-28T09:42:57;3.50;;;2.80;;
1721;SDS011;858;53.190;8.596;2023-02-28T09:45:27;5.65;;;3.03;;
1721;SDS011;858;53.190;8.596;2023-02-28T09:47:55;5.35;;;2.50;;
1721;SDS011;858;53.190;8.596;2023-02-28T09:50:28;3.42;;;2.55;;
1721;SDS011;858;53.190;8.596;2023-02-28T09:52:57;2.30;;;1.90;;
1721;SDS011;858;53.190;8.596;2023-02-28T09:55:27;2.60;;;2.00;;
1721;SDS011;858;53.190;8.596;2023-02-28T09:57:56;2.08;;;1.88;;
1721;SDS011;858;53.190;8.596;2023-02-28T10:00:27;6.72;;;2.40;;
1721;SDS011;858;53.190;8.596;2023-02-28T10:02:57;3.50;;;2.00;;
1721;SDS011;858;53.190;8.596;2023-02-28T10:05:26;2.30;;;1.80;;
1721;SDS011;858;53.190;8.596;2023-02-28T10:07:56;1.98;;;1.65;;
1721;SDS011;858;53.190;8.596;2023-02-28T10:10:26;2.83;;;2.20;;
1721;SDS011;858;53.190;8.596;2023-02-28T10:12:55;3.15;;;2.33;;
1721;SDS011;858;53.190;8.596;2023-02-28T10:15:24;3.58;;;2.60;;
1721;SDS011;858;53.190;8.596;2023-02-28T10:17:53;4.00;;;3.30;;
1721;SDS011;858;53.190;8.596;2023-02-28T10:20:21;3.60;;;2.60;;
1721;SDS011;858;53.190;8.596;2023-02-28T10:22:57;3.40;;;2.10;;
1721;SDS011;858;53.190;8.596;2023-02-28T10:25:24;3.08;;;2.15;;
1721;SDS011;858;53.190;8.596;2023-02-28T10:27:53;3.55;;;2.20;;
1721;SDS011;858;53.190;8.596;2023-02-28T10:30:20;6.00;;;3.17;;
1721;SDS011;858;53.190;8.596;2023-02-28T10:32:49;2.92;;;2.50;;
1721;SDS011;858;53.190;8.596;2023-02-28T10:35:16;4.10;;;2.70;;
1721;SDS011;858;53.190;8.596;2023-02-28T10:37:44;3.90;;;2.70;;
1721;SDS011;858;53.190;8.596;2023-02-28T10:40:25;3.60;;;2.88;;
1721;SDS011;858;53.190;8.596;2023-02-28T10:42:56;4.93;;;2.83;;
1721;SDS011;858;53.190;8.596;2023-02-28T10:45:23;6.97;;;4.18;;
1721;SDS011;858;53.190;8.596;2023-02-28T10:47:53;4.13;;;2.80;;
1721;SDS011;858;53.190;8.596;2023-02-28T10:50:27;7.18;;;2.88;;
1721;SDS011;858;53.190;8.596;2023-02-28T10:52:53;3.47;;;2.90;;
1721;SDS011;858;53.190;8.596;2023-02-28T10:55:21;4.40;;;2.90;;
1721;SDS011;858;53.190;8.596;2023-02-28T10:57:49;4.75;;;2.97;;
1721;SDS011;858;53.190;8.596;2023-02-28T11:00:16;5.55;;;3.28;;
1721;SDS011;858;53.190;8.596;2023-02-28T11:02:44;3.80;;;2.85;;
1721;SDS011;858;53.190;8.596;2023-02-28T11:05:27;4.43;;;2.92;;
1721;SDS011;858;53.190;8.596;2023-02-28T11:07:54;5.88;;;3.50;;
1721;SDS011;858;53.190;8.596;2023-02-28T11:10:23;4.70;;;2.83;;
1721;SDS011;858;53.190;8.596;2023-02-28T11:12:53;4.68;;;2.90;;
1721;SDS011;858;53.190;8.596;2023-02-28T11:15:21;3.65;;;2.58;;
1721;SDS011;858;53.190;8.596;2023-02-28T11:17:53;3.50;;;2.50;;
1721;SDS011;858;53.190;8.596;2023-02-28T11:20:20;2.78;;;2.50;;
1721;SDS011;858;53.190;8.596;2023-02-28T11:22:51;5.15;;;2.63;;
1721;SDS011;858;53.190;8.596;2023-02-28T11:25:19;3.70;;;2.70;;
1721;SDS011;858;53.190;8.596;2023-02-28T11:27:48;2.90;;;2.60;;
1721;SDS011;858;53.190;8.596;2023-02-28T11:30:28;4.15;;;2.95;;
1721;SDS011;858;53.190;8.596;2023-02-28T11:32:56;4.20;;;2.80;;
1721;SDS011;858;53.190;8.596;2023-02-28T11:35:23;3.60;;;2.58;;
1721;SDS011;858;53.190;8.596;2023-02-28T11:37:52;5.05;;;2.80;;
1721;SDS011;858;53.190;8.596;2023-02-28T11:40:19;6.63;;;3.05;;
1721;SDS011;858;53.190;8.596;2023-02-28T11:42:49;5.60;;;3.38;;
1721;SDS011;858;53.190;8.596;2023-02-28T11:45:22;3.58;;;2.50;;
1721;SDS011;858;53.190;8.596;2023-02-28T11:47:59;3.90;;;2.50;;
1721;SDS011;858;53.190;8.596;2023-02-28T11:50:37;3.40;;;2.67;;
1721;SDS011;858;53.190;8.596;2023-02-28T11:53:10;4.07;;;2.30;;
1721;SDS011;858;53.190;8.596;2023-02-28T11:55:38;2.80;;;2.45;;
1721;SDS011;858;53.190;8.596;2023-02-28T11:58:11;4.50;;;2.42;;
1721;SDS011;858;53.190;8.596;2023-02-28T12:00:45;4.05;;;2.40;;
1721;SDS011;858;53.190;8.596;2023-02-28T12:03:19;4.43;;;2.60;;
1721;SDS011;858;53.190;8.596;2023-02-28T12:05:51;3.40;;;2.20;;
1721;SDS011;858;53.190;8.596;2023-02-28T12:08:25;3.83;;;2.80;;
1721;SDS011;858;53.190;8.596;2023-02-28T12:10:54;2.85;;;2.45;;
1721;SDS011;858;53.190;8.596;2023-02-28T12:13:24;4.53;;;2.72;;
1721;SDS011;858;53.190;8.596;2023-02-28T12:16:11;3.97;;;2.58;;
1721;SDS011;858;53.190;8.596;2023-02-28T12:18:51;4.55;;;2.95;;
1721;SDS011;858;53.190;8.596;2023-02-28T12:21:21;3.85;;;2.70;;
1721;SDS011;858;53.190;8.596;2023-02-28T12:23:56;3.03;;;2.67;;
1721;SDS011;858;53.190;8.596;2023-02-28T12:26:26;2.90;;;2.60;;
1721;SDS011;858;53.190;8.596;2023-02-28T12:28:57;3.28;;;2.38;;
1721;SDS011;858;53.190;8.596;2023-02-28T12:31:26;3.03;;;2.70;;
1721;SDS011;858;53.190;8.596;2023-02-28T12:33:53;3.38;;;2.40;;
1721;SDS011;858;53.190;8.596;2023-02-28T12:36:23;3.00;;;2.45;;
1721;SDS011;858;53.190;8.596;2023-02-28T12:38:52;5.10;;;2.60;;
1721;SDS011;858;53.190;8.596;2023-02-28T12:41:22;4.20;;;2.80;;
1721;SDS011;858;53.190;8.596;2023-02-28T12:43:52;3.53;;;2.60;;
1721;SDS011;858;53.190;8.596;2023-02-28T12:46:22;4.00;;;2.95;;
1721;SDS011;858;53.190;8.596;2023-02-28T12:48:50;2.80;;;2.50;;
1721;SDS011;858;53.190;8.596;2023-02-28T12:51:21;3.80;;;2.40;;
1721;SDS011;858;53.190;8.596;2023-02-28T12:53:51;3.80;;;1.98;;
1721;SDS011;858;53.190;8.596;2023-02-28T12:56:21;3.30;;;2.15;;
1721;SDS011;858;53.190;8.596;2023-02-28T12:58:54;2.10;;;1.90;;
1721;SDS011;858;53.190;8.596;2023-02-28T13:01:38;3.40;;;2.20;;
1721;SDS011;858;53.190;8.596;2023-02-28T13:04:14;4.60;;;2.20;;
1721;SDS011;858;53.190;8.596;2023-02-28T13:07:08;3.55;;;2.20;;
1721;SDS011;858;53.190;8.596;2023-02-28T13:09:39;3.50;;;2.30;;
1721;SDS011;858;53.190;8.596;2023-02-28T13:12:13;3.25;;;2.20;;
1721;SDS011;858;53.190;8.596;2023-02-28T13:14:40;4.07;;;2.40;;
1721;SDS011;858;53.190;8.596;2023-02-28T13:17:10;4.50;;;2.35;;
1721;SDS011;858;53.190;8.596;2023-02-28T13:19:38;3.00;;;2.42;;
1721;SDS011;858;53.190;8.596;2023-02-28T13:22:05;4.30;;;2.38;;
1721;SDS011;858;53.190;8.596;2023-02-28T13:24:42;3.53;;;2.65;;
1721;SDS011;858;53.190;8.596;2023-02-28T13:29:58;5.43;;;2.38;;
1721;SDS011;858;53.190;8.596;2023-02-28T13:32:29;3.10;;;2.20;;
1721;SDS011;858;53.190;8.596;2023-02-28T13:35:15;3.05;;;2.30;;
1721;SDS011;858;53.190;8.596;2023-02-28T13:38:13;3.35;;;2.40;;
1721;SDS011;858;53.190;8.596;2023-02-28T13:40:41;3.60;;;2.20;;
1721;SDS011;858;53.190;8.596;2023-02-28T13:43:08;2.95;;;2.38;;
1721;SDS011;858;53.190;8.596;2023-02-28T13:45:36;5.75;;;3.10;;
1721;SDS011;858;53.190;8.596;2023-02-28T13:48:04;4.43;;;2.30;;
1721;SDS011;858;53.190;8.596;2023-02-28T13:50:32;4.03;;;2.67;;
1721;SDS011;858;53.190;8.596;2023-02-28T13:55:45;2.87;;;2.50;;
1721;SDS011;858;53.190;8.596;2023-02-28T13:58:24;3.17;;;2.70;;
1721;SDS011;858;53.190;8.596;2023-02-28T14:03:39;2.90;;;2.60;;
1721;SDS011;858;53.190;8.596;2023-02-28T14:06:16;3.00;;;2.70;;
1721;SDS011;858;53.190;8.596;2023-02-28T14:08:47;4.35;;;2.90;;
1721;SDS011;858;53.190;8.596;2023-02-28T14:11:24;3.67;;;2.60;;
1721;SDS011;858;53.190;8.596;2023-02-28T14:13:51;5.13;;;2.70;;
1721;SDS011;858;53.190;8.596;2023-02-28T14:16:19;5.75;;;2.78;;
1721;SDS011;858;53.190;8.596;2023-02-28T14:18:50;3.75;;;2.90;;
1721;SDS011;858;53.190;8.596;2023-02-28T14:21:21;3.53;;;2.75;;
1721;SDS011;858;53.190;8.596;2023-02-28T14:29:36;3.20;;;2.40;;
1721;SDS011;858;53.190;8.596;2023-02-28T14:32:06;3.70;;;2.30;;
1721;SDS011;858;53.190;8.596;2023-02-28T14:34:40;4.95;;;2.50;;
1721;SDS011;858;53.190;8.596;2023-02-28T14:37:09;3.30;;;2.35;;
1721;SDS011;858;53.190;8.596;2023-02-28T14:39:40;3.13;;;2.40;;
1721;SDS011;858;53.190;8.596;2023-02-28T14:44:53;3.90;;;2.50;;
1721;SDS011;858;53.190;8.596;2023-02-28T14:47:20;2.30;;;2.10;;
1721;SDS011;858;53.190;8.596;2023-02-28T14:49:49;2.78;;;2.40;;
1721;SDS011;858;53.190;8.596;2023-02-28T14:52:19;2.80;;;2.60;;
1721;SDS011;858;53.190;8.596;2023-02-28T14:54:46;3.80;;;2.60;;
1721;SDS011;858;53.190;8.596;2023-02-28T14:57:22;3.03;;;2.30;;
1721;SDS011;858;53.190;8.596;2023-02-28T14:59:56;3.53;;;3.00;;
1721;SDS011;858;53.190;8.596;2023-02-28T15:02:23;3.72;;;2.35;;
1721;SDS011;858;53.190;8.596;2023-02-28T15:04:58;2.67;;;2.35;;
1721;SDS011;858;53.190;8.596;2023-02-28T15:07:24;3.28;;;2.10;;
1721;SDS011;858;53.190;8.596;2023-02-28T15:10:07;2.67;;;2.47;;
1721;SDS011;858;53.190;8.596;2023-02-28T15:12:34;3.83;;;2.50;;
1721;SDS011;858;53.190;8.596;2023-02-28T15:15:00;3.17;;;2.20;;
1721;SDS011;858;53.190;8.596;2023-02-28T15:17:27;3.30;;;2.40;;
1721;SDS011;858;53.190;8.596;2023-02-28T15:19:53;2.85;;;2.33;;
1721;SDS011;858;53.190;8.596;2023-02-28T15:22:26;3.33;;;2.40;;
1721;SDS011;858;53.190;8.596;2023-02-28T15:24:54;3.10;;;2.47;;
1721;SDS011;858;53.190;8.596;2023-02-28T15:27:21;5.07;;;2.27;;
1721;SDS011;858;53.190;8.596;2023-02-28T15:29:48;4.30;;;2.35;;
1721;SDS011;858;53.190;8.596;2023-02-28T15:32:21;4.18;;;2.30;;
1721;SDS011;858;53.190;8.596;2023-02-28T15:34:49;3.75;;;2.60;;
1721;SDS011;858;53.190;8.596;2023-02-28T15:37:31;3.78;;;2.45;;
1721;SDS011;858;53.190;8.596;2023-02-28T15:40:04;2.78;;;2.10;;
1721;SDS011;858;53.190;8.596;2023-02-28T15:42:32;4.63;;;3.00;;
1721;SDS011;858;53.190;8.596;2023-02-28T15:44:58;3.20;;;2.40;;
1721;SDS011;858;53.190;8.596;2023-02-28T15:47:26;5.38;;;2.90;;
1721;SDS011;858;53.190;8.596;2023-02-28T15:49:53;4.60;;;3.00;;
1721;SDS011;858;53.190;8.596;2023-02-28T15:52:21;4.18;;;2.30;;
1721;SDS011;858;53.190;8.596;2023-02-28T15:54:49;2.83;;;2.30;;
1721;SDS011;858;53.190;8.596;2023-02-28T15:57:18;4.57;;;2.80;;
1721;SDS011;858;53.190;8.596;2023-02-28T15:59:48;3.17;;;2.53;;